createdAt,value
2022-12-29T00:01:11.944Z,11.50
2022-12-29T00:03:40.268Z,11.40
2022-12-29T00:06:09.949Z,11.40
2022-12-29T00:08:43.971Z,11.50
2022-12-29T00:11:14.858Z,11.50
2022-12-29T00:14:01.616Z,11.60
2022-12-29T00:16:31.134Z,11.60
2022-12-29T00:18:59.593Z,11.60
2022-12-29T00:21:46.797Z,11.70
2022-12-29T00:24:35.095Z,11.60
2022-12-29T00:27:31.169Z,11.60
2022-12-29T00:30:17.270Z,11.50
2022-12-29T00:33:03.521Z,11.50
2022-12-29T00:35:34.158Z,11.50
2022-12-29T00:38:26.840Z,11.50
2022-12-29T00:41:12.707Z,11.50
2022-12-29T00:44:13.114Z,11.50
2022-12-29T00:46:43.824Z,11.60
2022-12-29T00:49:31.121Z,11.50
2022-12-29T00:52:01.794Z,11.50
2022-12-29T00:54:34.723Z,11.40
2022-12-29T00:57:04.489Z,11.40
2022-12-29T00:59:33.126Z,11.30
2022-12-29T01:02:02.558Z,11.30
2022-12-29T01:04:31.152Z,11.40
2022-12-29T01:06:59.397Z,11.30
2022-12-29T01:09:45.091Z,11.40
2022-12-29T01:12:14.783Z,11.40
2022-12-29T01:14:43.166Z,11.50
2022-12-29T01:17:11.407Z,11.40
2022-12-29T01:19:40.773Z,11.40
2022-12-29T01:22:08.970Z,11.50
2022-12-29T01:24:37.139Z,11.50
2022-12-29T01:27:05.412Z,11.60
2022-12-29T01:29:34.954Z,11.60
2022-12-29T01:32:03.233Z,11.60
2022-12-29T01:34:31.485Z,11.70
2022-12-29T01:36:59.803Z,11.70
2022-12-29T01:39:28.294Z,11.80
2022-12-29T01:41:56.488Z,11.80
2022-12-29T01:44:51.448Z,11.80
2022-12-29T01:47:34.370Z,11.70
2022-12-29T01:50:08.415Z,11.60
2022-12-29T01:52:39.336Z,11.60
2022-12-29T01:55:09.515Z,11.50
2022-12-29T01:57:42.893Z,11.50
2022-12-29T02:00:15.258Z,11.50
2022-12-29T02:02:47.153Z,11.50
2022-12-29T02:05:22.047Z,11.50
2022-12-29T02:07:51.842Z,11.40
2022-12-29T02:10:21.846Z,11.30
2022-12-29T02:12:50.373Z,11.20
2022-12-29T02:15:25.861Z,11.20
2022-12-29T02:18:05.953Z,11.10
2022-12-29T02:21:06.836Z,11.20
2022-12-29T02:24:13.958Z,11.10
2022-12-29T02:27:00.654Z,11.20
2022-12-29T02:30:04.370Z,11.20
2022-12-29T02:32:41.564Z,11.20
2022-12-29T02:35:18.148Z,11.30
2022-12-29T02:37:55.489Z,11.30
2022-12-29T02:40:28.827Z,11.30
2022-12-29T02:43:06.860Z,11.20
2022-12-29T02:45:44.264Z,11.30
2022-12-29T02:48:22.112Z,11.20
2022-12-29T02:50:56.489Z,11.20
2022-12-29T02:53:40.832Z,11.20
2022-12-29T02:56:09.067Z,11.20
2022-12-29T02:58:37.297Z,11.30
2022-12-29T03:01:25.295Z,11.30
2022-12-29T03:04:12.995Z,11.20
2022-12-29T03:06:54.132Z,11.20
2022-12-29T03:09:33.340Z,11.30
2022-12-29T03:12:15.041Z,11.30
2022-12-29T03:15:11.969Z,11.30
2022-12-29T03:17:50.713Z,11.30
2022-12-29T03:20:23.913Z,11.30
2022-12-29T03:23:01.607Z,11.40
2022-12-29T03:25:35.478Z,11.50
2022-12-29T03:28:11.309Z,11.50
2022-12-29T03:30:46.210Z,11.50
2022-12-29T03:33:19.794Z,11.50
2022-12-29T03:35:52.860Z,11.60
2022-12-29T03:38:27.495Z,11.60
2022-12-29T03:41:00.267Z,11.60
2022-12-29T03:43:30.401Z,11.70
2022-12-29T03:45:58.940Z,11.70
2022-12-29T03:48:27.219Z,11.80
2022-12-29T03:50:58.759Z,11.70
2022-12-29T03:53:27.478Z,11.60
2022-12-29T03:55:55.885Z,11.60
2022-12-29T03:58:25.036Z,11.50
2022-12-29T04:01:01.170Z,11.50
2022-12-29T04:03:30.505Z,11.60
2022-12-29T04:06:00.072Z,11.60
2022-12-29T04:08:30.636Z,11.70
2022-12-29T04:11:00.104Z,11.60
2022-12-29T04:13:29.248Z,11.60
2022-12-29T04:15:57.979Z,11.50
2022-12-29T04:18:26.232Z,11.50
2022-12-29T04:21:03.888Z,11.50
2022-12-29T04:23:37.443Z,11.60
2022-12-29T04:26:10.033Z,11.60
2022-12-29T04:28:51.866Z,11.60
2022-12-29T04:31:35.028Z,11.60
2022-12-29T04:34:03.844Z,11.70
2022-12-29T04:36:33.133Z,11.60
2022-12-29T04:39:03.131Z,11.70
2022-12-29T04:41:31.340Z,11.70
2022-12-29T04:43:59.613Z,11.60
2022-12-29T04:46:46.077Z,11.50
2022-12-29T04:49:32.167Z,11.50
2022-12-29T04:52:23.230Z,11.30
2022-12-29T04:54:52.814Z,11.40
2022-12-29T04:57:22.659Z,11.20
2022-12-29T04:59:55.599Z,11.30
2022-12-29T05:02:25.047Z,11.30
2022-12-29T05:04:53.578Z,11.30
2022-12-29T05:07:22.106Z,11.20
2022-12-29T05:09:52.263Z,11.20
2022-12-29T05:12:20.596Z,11.20
2022-12-29T05:14:56.555Z,11.10
2022-12-29T05:17:24.850Z,11.10
2022-12-29T05:19:53.109Z,11.10
2022-12-29T05:22:21.919Z,11.10
2022-12-29T05:24:52.449Z,11.20
2022-12-29T05:27:20.864Z,11.20
2022-12-29T05:30:15.305Z,11.10
2022-12-29T05:32:43.633Z,11.10
2022-12-29T05:35:11.888Z,11.20
2022-12-29T05:37:40.225Z,11.20
2022-12-29T05:40:11.966Z,11.20
2022-12-29T05:42:41.828Z,11.20
2022-12-29T05:45:35.192Z,11.20
2022-12-29T05:48:38.062Z,11.30
2022-12-29T05:51:15.703Z,11.30
2022-12-29T05:53:52.028Z,11.30
2022-12-29T05:56:21.612Z,11.20
2022-12-29T05:58:56.279Z,11.20
2022-12-29T06:01:26.050Z,11.00
2022-12-29T06:03:55.711Z,10.90
2022-12-29T06:06:24.115Z,10.90
2022-12-29T06:08:52.935Z,10.90
2022-12-29T06:11:23.279Z,10.80
2022-12-29T06:13:55.514Z,10.90
2022-12-29T06:16:25.359Z,10.80
2022-12-29T06:18:57.038Z,10.80
2022-12-29T06:21:25.349Z,10.80
2022-12-29T06:23:53.579Z,10.70
2022-12-29T06:26:24.001Z,10.70
2022-12-29T06:28:53.108Z,10.70
2022-12-29T06:31:21.447Z,10.70
2022-12-29T06:33:50.738Z,10.70
2022-12-29T06:36:19.553Z,10.70
2022-12-29T06:38:47.908Z,10.80
2022-12-29T06:41:16.673Z,10.80
2022-12-29T06:44:05.834Z,10.90
2022-12-29T06:46:54.901Z,10.90
2022-12-29T06:49:23.289Z,10.90
2022-12-29T06:51:51.468Z,10.90
2022-12-29T06:54:19.670Z,11.00
2022-12-29T06:56:47.879Z,11.00
2022-12-29T06:59:17.428Z,10.90
2022-12-29T07:01:45.794Z,10.90
2022-12-29T07:04:14.074Z,10.90
2022-12-29T07:06:42.365Z,10.90
2022-12-29T07:09:10.960Z,10.90
2022-12-29T07:11:39.197Z,10.80
2022-12-29T07:14:07.360Z,10.80
2022-12-29T07:16:36.986Z,10.70
2022-12-29T07:19:05.406Z,10.60
2022-12-29T07:21:33.608Z,10.50
2022-12-29T07:24:01.925Z,10.50
2022-12-29T07:26:35.897Z,10.50
2022-12-29T07:29:04.643Z,10.60
2022-12-29T07:31:33.136Z,10.70
2022-12-29T07:34:02.699Z,10.70
2022-12-29T07:36:34.327Z,10.70
2022-12-29T07:39:03.596Z,10.70
2022-12-29T07:41:31.885Z,10.60
2022-12-29T07:44:03.349Z,10.60
2022-12-29T07:46:55.651Z,10.50
2022-12-29T07:49:23.841Z,10.50
2022-12-29T07:51:52.030Z,10.60
2022-12-29T07:54:20.247Z,10.70
2022-12-29T07:56:48.598Z,10.70
2022-12-29T07:59:16.849Z,10.70
2022-12-29T08:01:45.184Z,10.50
2022-12-29T08:04:13.612Z,10.50
2022-12-29T08:06:43.262Z,10.40
2022-12-29T08:09:18.027Z,10.30
2022-12-29T08:11:50.266Z,10.40
2022-12-29T08:14:19.193Z,10.50
2022-12-29T08:16:47.426Z,10.50
2022-12-29T08:19:15.866Z,10.50
2022-12-29T08:21:45.450Z,10.30
2022-12-29T08:24:13.600Z,10.30
2022-12-29T08:26:41.782Z,10.30
2022-12-29T08:29:10.008Z,10.30
2022-12-29T08:31:38.661Z,10.30
2022-12-29T08:34:07.378Z,10.30
2022-12-29T08:36:35.613Z,10.30
2022-12-29T08:39:06.083Z,10.20
2022-12-29T08:41:34.395Z,10.30
2022-12-29T08:44:02.809Z,10.30
2022-12-29T08:46:31.085Z,10.30
2022-12-29T08:48:59.327Z,10.20
2022-12-29T08:51:27.594Z,10.20
2022-12-29T08:53:55.829Z,10.10
2022-12-29T08:56:25.613Z,10.00
2022-12-29T08:58:57.571Z,10.00
2022-12-29T09:01:26.543Z,10.00
2022-12-29T09:06:44.715Z,10.00
2022-12-29T09:09:13.129Z,10.10
2022-12-29T09:11:44.235Z,10.10
2022-12-29T09:14:12.937Z,10.10
2022-12-29T09:16:55.708Z,10.10
2022-12-29T09:19:23.924Z,10.20
2022-12-29T09:21:52.100Z,10.10
2022-12-29T09:24:20.277Z,10.20
2022-12-29T09:26:49.822Z,10.30
2022-12-29T09:29:18.031Z,10.20
2022-12-29T09:31:46.228Z,10.20
2022-12-29T09:34:14.474Z,10.10
2022-12-29T09:36:42.656Z,10.20
2022-12-29T09:39:10.915Z,10.10
2022-12-29T09:41:43.871Z,10.20
2022-12-29T09:44:22.158Z,10.20
2022-12-29T09:46:53.207Z,10.30
2022-12-29T09:49:27.981Z,10.40
2022-12-29T09:51:59.373Z,10.30
2022-12-29T09:54:58.115Z,10.30
2022-12-29T09:57:37.540Z,10.30
2022-12-29T10:00:15.543Z,10.30
2022-12-29T10:02:46.668Z,10.30
2022-12-29T10:05:29.093Z,10.20
2022-12-29T10:08:05.290Z,10.40
2022-12-29T10:10:40.144Z,10.40
2022-12-29T10:13:27.156Z,10.50
2022-12-29T10:16:05.131Z,10.50
2022-12-29T10:19:06.332Z,10.50
2022-12-29T10:21:45.547Z,10.50
2022-12-29T10:24:15.245Z,10.50
2022-12-29T10:26:45.276Z,10.50
2022-12-29T10:29:20.324Z,10.50
2022-12-29T10:31:52.955Z,10.40
2022-12-29T10:34:25.734Z,10.40
2022-12-29T10:36:58.156Z,10.50
2022-12-29T10:39:33.797Z,10.60
2022-12-29T10:42:11.171Z,10.70
2022-12-29T10:44:39.459Z,10.60
2022-12-29T10:47:14.200Z,10.60
2022-12-29T10:49:45.085Z,10.60
2022-12-29T10:52:15.509Z,10.70
2022-12-29T10:54:50.660Z,10.80
2022-12-29T10:57:27.723Z,10.90
2022-12-29T10:59:55.956Z,11.10
2022-12-29T11:02:48.606Z,11.10
2022-12-29T11:05:23.712Z,11.20
2022-12-29T11:07:53.498Z,11.30
2022-12-29T11:10:31.480Z,11.50
2022-12-29T11:13:01.711Z,11.70
2022-12-29T11:15:39.879Z,11.80
2022-12-29T11:18:24.138Z,11.90
2022-12-29T11:20:54.147Z,11.90
2022-12-29T11:23:36.591Z,12.00
2022-12-29T11:26:19.275Z,12.00
2022-12-29T11:28:49.556Z,12.00
2022-12-29T11:31:19.493Z,11.90
2022-12-29T11:33:49.098Z,11.80
2022-12-29T11:36:21.769Z,11.80
2022-12-29T11:38:52.098Z,11.80
2022-12-29T11:41:26.251Z,11.80
2022-12-29T11:43:56.785Z,11.80
2022-12-29T11:46:28.931Z,11.70
2022-12-29T11:49:01.478Z,11.60
2022-12-29T11:51:33.975Z,11.70
2022-12-29T11:54:05.665Z,11.80
2022-12-29T11:56:40.732Z,11.90
2022-12-29T11:59:38.906Z,11.90
2022-12-29T12:02:28.672Z,11.80
2022-12-29T12:05:06.350Z,11.80
2022-12-29T12:07:41.277Z,11.80
2022-12-29T12:10:25.149Z,11.90
2022-12-29T12:13:00.631Z,11.90
2022-12-29T12:15:33.711Z,11.90
2022-12-29T12:18:07.428Z,12.10
2022-12-29T12:20:44.687Z,12.10
2022-12-29T12:23:30.961Z,12.20
2022-12-29T12:26:04.547Z,12.30
2022-12-29T12:28:42.068Z,12.20
2022-12-29T12:31:21.616Z,12.20
2022-12-29T12:33:57.176Z,12.10
2022-12-29T12:36:50.957Z,12.10
2022-12-29T12:39:29.166Z,12.10
2022-12-29T12:42:15.521Z,12.00
2022-12-29T12:44:57.741Z,12.10
2022-12-29T12:47:49.657Z,12.10
2022-12-29T12:50:37.500Z,12.20
2022-12-29T12:53:34.775Z,12.10
2022-12-29T12:56:34.265Z,11.90
2022-12-29T12:59:12.295Z,11.90
2022-12-29T13:01:52.328Z,11.80
2022-12-29T13:04:44.364Z,11.80
2022-12-29T13:07:22.423Z,11.70
2022-12-29T13:10:07.729Z,11.60
2022-12-29T13:12:46.383Z,11.40
2022-12-29T13:15:24.856Z,11.40
2022-12-29T13:18:01.563Z,11.40
2022-12-29T13:20:38.733Z,11.40
2022-12-29T13:23:13.704Z,11.40
2022-12-29T13:25:52.257Z,11.50
2022-12-29T13:28:27.640Z,11.50
2022-12-29T13:31:02.672Z,11.50
2022-12-29T13:33:43.033Z,11.50
2022-12-29T13:36:25.027Z,11.50
2022-12-29T13:39:00.662Z,11.40
2022-12-29T13:41:35.700Z,11.30
2022-12-29T13:44:06.505Z,11.30
2022-12-29T13:46:41.169Z,11.30
2022-12-29T13:49:15.043Z,11.40
2022-12-29T13:51:49.736Z,11.40
2022-12-29T13:54:27.714Z,11.40
2022-12-29T13:57:09.008Z,11.20
2022-12-29T13:59:46.403Z,11.20
2022-12-29T14:02:34.517Z,11.10
2022-12-29T14:05:05.199Z,11.00
2022-12-29T14:07:39.647Z,11.00
2022-12-29T14:10:27.124Z,10.90
2022-12-29T14:13:04.151Z,10.90
2022-12-29T14:15:32.716Z,10.80
2022-12-29T14:18:16.809Z,10.80
2022-12-29T14:20:57.845Z,10.70
2022-12-29T14:23:41.756Z,10.70
2022-12-29T14:26:16.414Z,10.70
2022-12-29T14:28:46.985Z,10.70
2022-12-29T14:31:45.075Z,10.60
2022-12-29T14:34:39.115Z,10.50
2022-12-29T14:37:26.569Z,10.40
2022-12-29T14:40:07.653Z,10.40
2022-12-29T14:42:36.364Z,10.40
2022-12-29T14:45:11.031Z,10.40
2022-12-29T14:47:42.434Z,10.50
2022-12-29T14:50:15.974Z,10.60
2022-12-29T14:52:49.105Z,10.60
2022-12-29T14:55:38.510Z,10.50
2022-12-29T14:58:13.710Z,10.40
2022-12-29T15:00:44.429Z,10.20
2022-12-29T15:03:20.098Z,10.10
2022-12-29T15:05:52.492Z,10.00
2022-12-29T15:08:24.525Z,10.10
2022-12-29T15:10:57.435Z,10.00
2022-12-29T15:13:36.201Z,10.00
2022-12-29T15:16:06.412Z,10.10
2022-12-29T15:18:35.637Z,10.00
2022-12-29T15:21:06.285Z,10.00
2022-12-29T15:23:36.838Z,10.10
2022-12-29T15:26:07.304Z,10.10
2022-12-29T15:28:41.046Z,10.00
2022-12-29T15:31:14.858Z,9.90
2022-12-29T15:33:46.161Z,9.80
2022-12-29T15:36:16.759Z,9.70
2022-12-29T15:38:44.970Z,9.60
2022-12-29T15:41:28.179Z,9.50
2022-12-29T15:44:08.363Z,9.40
2022-12-29T15:46:38.533Z,9.30
2022-12-29T15:49:08.847Z,9.20
2022-12-29T15:51:39.794Z,9.20
2022-12-29T15:54:08.984Z,9.40
2022-12-29T15:56:37.185Z,9.50
2022-12-29T15:59:05.417Z,9.60
2022-12-29T16:01:35.855Z,9.70
2022-12-29T16:04:08.511Z,9.80
2022-12-29T16:06:38.980Z,9.60
2022-12-29T16:09:08.794Z,9.60
2022-12-29T16:11:39.840Z,9.50
2022-12-29T16:14:12.141Z,9.20
2022-12-29T16:16:42.919Z,9.10
2022-12-29T16:19:16.817Z,9.00
2022-12-29T16:21:45.489Z,8.90
2022-12-29T16:24:17.698Z,8.80
2022-12-29T16:26:51.630Z,8.50
2022-12-29T16:29:22.632Z,8.40
2022-12-29T16:31:54.037Z,8.20
2022-12-29T16:34:27.266Z,8.00
2022-12-29T16:36:57.514Z,7.90
2022-12-29T16:39:44.321Z,7.80
2022-12-29T16:42:51.786Z,7.80
2022-12-29T16:46:07.306Z,7.80
2022-12-29T16:48:47.655Z,7.80
2022-12-29T16:51:18.368Z,7.70
2022-12-29T16:53:52.027Z,7.70
2022-12-29T16:56:23.207Z,7.60
2022-12-29T16:58:55.186Z,7.50
2022-12-29T17:01:23.928Z,7.50
2022-12-29T17:03:56.970Z,7.50
2022-12-29T17:06:25.292Z,7.50
2022-12-29T17:08:54.320Z,7.50
2022-12-29T17:11:50.167Z,7.60
2022-12-29T17:14:38.886Z,7.70
2022-12-29T17:17:13.443Z,7.70
2022-12-29T17:19:46.476Z,7.80
2022-12-29T17:22:18.925Z,7.80
2022-12-29T17:24:47.221Z,7.70
2022-12-29T17:27:36.649Z,7.80
2022-12-29T17:30:11.180Z,7.60
2022-12-29T17:32:39.604Z,7.50
2022-12-29T17:35:15.252Z,7.40
2022-12-29T17:37:43.506Z,7.30
2022-12-29T17:40:16.193Z,7.20
2022-12-29T17:42:47.107Z,7.10
2022-12-29T17:45:17.820Z,7.10
2022-12-29T17:47:46.428Z,7.10
2022-12-29T17:50:18.667Z,7.10
2022-12-29T17:52:51.026Z,7.10
2022-12-29T17:55:21.469Z,7.10
2022-12-29T17:57:49.879Z,7.00
2022-12-29T18:00:20.517Z,7.00
2022-12-29T18:02:49.935Z,7.00
2022-12-29T18:05:22.999Z,6.90
2022-12-29T18:07:52.956Z,6.90
2022-12-29T18:10:21.952Z,6.80
2022-12-29T18:12:51.780Z,6.80
2022-12-29T18:15:22.793Z,6.80
2022-12-29T18:17:55.390Z,6.80
2022-12-29T18:20:25.236Z,6.80
2022-12-29T18:22:53.472Z,6.80
2022-12-29T18:25:26.629Z,6.80
2022-12-29T18:27:54.978Z,6.80
2022-12-29T18:30:23.205Z,6.80
2022-12-29T18:32:51.425Z,6.80
2022-12-29T18:35:24.416Z,6.80
2022-12-29T18:37:54.007Z,6.80
2022-12-29T18:40:23.305Z,6.80
2022-12-29T18:42:51.538Z,6.70
2022-12-29T18:45:21.665Z,6.80
2022-12-29T18:47:50.259Z,6.80
2022-12-29T18:50:19.514Z,6.80
2022-12-29T18:52:47.828Z,6.80
2022-12-29T18:55:19.828Z,6.90
2022-12-29T18:57:48.301Z,6.90
2022-12-29T19:00:18.562Z,7.00
2022-12-29T19:02:47.729Z,7.00
2022-12-29T19:05:22.310Z,7.10
2022-12-29T19:07:50.926Z,7.20
2022-12-29T19:10:21.980Z,7.20
2022-12-29T19:12:50.677Z,7.30
2022-12-29T19:15:23.730Z,7.30
2022-12-29T19:18:08.570Z,7.30
2022-12-29T19:20:42.934Z,7.30
2022-12-29T19:23:13.303Z,7.30
2022-12-29T19:25:43.681Z,7.30
2022-12-29T19:28:19.273Z,7.20
2022-12-29T19:30:52.148Z,7.20
2022-12-29T19:33:21.779Z,7.20
2022-12-29T19:35:50.231Z,7.20
2022-12-29T19:38:18.868Z,7.20
2022-12-29T19:40:50.555Z,7.10
2022-12-29T19:43:19.430Z,7.10
2022-12-29T19:45:47.613Z,7.10
2022-12-29T19:48:17.359Z,7.10
2022-12-29T19:50:45.850Z,7.10
2022-12-29T19:53:14.920Z,7.10
2022-12-29T19:55:43.650Z,7.10
2022-12-29T19:58:13.810Z,7.10
2022-12-29T20:00:43.295Z,7.10
2022-12-29T20:03:12.374Z,7.10
2022-12-29T20:05:41.040Z,7.20
2022-12-29T20:08:09.366Z,7.10
2022-12-29T20:10:37.520Z,7.20
2022-12-29T20:13:06.064Z,7.10
2022-12-29T20:15:35.651Z,7.10
2022-12-29T20:18:13.782Z,7.10
2022-12-29T20:20:43.262Z,7.10
2022-12-29T20:23:11.562Z,7.10
2022-12-29T20:25:45.325Z,7.00
2022-12-29T20:28:16.934Z,7.00
2022-12-29T20:30:46.664Z,6.90
2022-12-29T20:33:15.143Z,6.90
2022-12-29T20:35:43.371Z,6.90
2022-12-29T20:38:11.562Z,6.90
2022-12-29T20:40:46.249Z,6.90
2022-12-29T20:43:17.229Z,6.90
2022-12-29T20:45:46.763Z,6.90
2022-12-29T20:48:14.987Z,6.90
2022-12-29T20:50:43.181Z,6.90
2022-12-29T20:53:12.255Z,6.80
2022-12-29T20:55:41.388Z,6.80
2022-12-29T20:58:26.046Z,6.80
2022-12-29T21:00:56.274Z,6.80
2022-12-29T21:03:24.986Z,6.80
2022-12-29T21:05:55.260Z,6.80
2022-12-29T21:08:23.520Z,6.80
2022-12-29T21:10:52.117Z,6.70
2022-12-29T21:13:20.772Z,6.70
2022-12-29T21:15:49.250Z,6.70
2022-12-29T21:18:18.777Z,6.70
2022-12-29T21:20:56.385Z,6.60
2022-12-29T21:23:24.775Z,6.70
2022-12-29T21:25:53.666Z,6.80
2022-12-29T21:28:23.354Z,6.60
2022-12-29T21:30:52.346Z,6.60
2022-12-29T21:33:22.550Z,6.60
2022-12-29T21:35:50.751Z,6.60
2022-12-29T21:38:18.899Z,6.50
2022-12-29T21:40:47.078Z,6.60
2022-12-29T21:43:15.277Z,6.60
2022-12-29T21:45:42.514Z,6.60
2022-12-29T21:48:23.979Z,6.50
2022-12-29T21:51:12.620Z,6.50
2022-12-29T21:53:42.897Z,6.40
2022-12-29T21:56:13.384Z,6.40
2022-12-29T21:59:01.431Z,6.40
2022-12-29T22:01:48.370Z,6.30
2022-12-29T22:04:36.554Z,6.40
2022-12-29T22:07:25.761Z,6.30
2022-12-29T22:10:11.361Z,6.30
2022-12-29T22:12:57.600Z,6.20
2022-12-29T22:15:26.318Z,6.20
2022-12-29T22:17:55.893Z,6.20
2022-12-29T22:20:26.506Z,6.10
2022-12-29T22:22:56.395Z,6.10
2022-12-29T22:25:25.087Z,6.10
2022-12-29T22:27:58.925Z,6.10
2022-12-29T22:30:28.774Z,6.10
2022-12-29T22:32:58.553Z,6.10
2022-12-29T22:35:26.821Z,6.10
2022-12-29T22:37:56.369Z,6.00
2022-12-29T22:40:24.590Z,6.00
2022-12-29T22:42:52.832Z,6.00
2022-12-29T22:45:21.015Z,6.00
2022-12-29T22:47:49.244Z,6.00
2022-12-29T22:50:17.461Z,6.10
2022-12-29T22:52:45.615Z,5.90
2022-12-29T22:55:15.169Z,6.00
2022-12-29T22:57:43.423Z,6.00
2022-12-29T23:00:12.735Z,5.90
2022-12-29T23:02:41.253Z,5.90
2022-12-29T23:05:10.328Z,5.90
2022-12-29T23:07:38.569Z,6.00
2022-12-29T23:10:07.502Z,5.90
2022-12-29T23:12:37.234Z,6.00
2022-12-29T23:15:06.350Z,6.00
2022-12-29T23:17:34.574Z,6.00
2022-12-29T23:20:02.769Z,6.00
2022-12-29T23:22:30.987Z,6.00
2022-12-29T23:24:59.291Z,6.00
2022-12-29T23:27:27.442Z,6.00
2022-12-29T23:29:56.992Z,6.10
2022-12-29T23:32:25.168Z,6.10
2022-12-29T23:34:53.368Z,6.00
2022-12-29T23:37:21.514Z,6.10
2022-12-29T23:39:49.704Z,6.10
2022-12-29T23:42:17.879Z,6.10
2022-12-29T23:44:46.122Z,6.10
2022-12-29T23:47:15.646Z,6.10
2022-12-29T23:49:43.807Z,6.00
2022-12-29T23:52:11.963Z,6.00
2022-12-29T23:54:40.183Z,6.00
2022-12-29T23:57:08.492Z,6.00
2022-12-29T23:59:36.764Z,6.00
